Time;durP1;ratioP1;P1;durP2;ratioP2;P2;SDS_P1;SDS_P2;PMS_P1;PMS_P2;Temp;Humidity;BMP_temperature;BMP_pressure;BME280_temperature;BME280_humidity;BME280_pressure;Samples;Min_cycle;Max_cycle;Signal;HPM_P1;HPM_P2
2022/02/10 00:43:00;;;;;;;;;;;;;;;;;;;;;
2022/02/10 00:46:25;;;;;;;;;;;;;;;;;;;;;
2022/02/10 00:49:18;;;;;;;56.40;30.70;;;9.20;96.60;;;;;;6175872;23;20096;-93
2022/02/10 00:52:07;;;;;;;58.08;31.48;;;9.20;96.60;;;;;;6168151;23;20057;-93
2022/02/10 00:55:24;;;;;;;52.33;30.25;;;9.20;96.60;;;;;;6158532;23;20076;-93
2022/02/10 00:58:09;;;;;;;57.75;32.08;;;9.20;96.70;;;;;;6196645;23;20020;-93
2022/02/10 01:29:58;;;;;;;;;;;;;;;;;;;;;
2022/02/10 01:40:11;;;;;;;51.03;30.65;;;9.20;96.70;;;;;;6127579;23;20049;-92
2022/02/10 02:04:29;;;;;;;60.35;33.97;;;9.20;96.90;;;;;;6108346;23;20032;-93
2022/02/10 02:07:10;;;;;;;58.53;34.03;;;9.20;96.90;;;;;;6060799;23;20065;-92
2022/02/10 02:10:05;;;;;;;63.70;34.90;;;9.20;96.80;;;;;;6113208;23;20184;-93
2022/02/10 02:12:55;;;;;;;64.28;37.92;;;9.20;96.90;;;;;;6064669;23;20028;-94
2022/02/10 02:15:38;;;;;;;64.60;37.35;;;9.20;96.90;;;;;;6086321;23;20029;-94
2022/02/10 02:18:38;;;;;;;;;;;;;;;;;;;;;
2022/02/10 02:21:41;;;;;;;;;;;;;;;;;;;;;
2022/02/10 02:24:58;;;;;;;74.30;39.75;;;9.20;96.90;;;;;;6157539;23;20483;-93
2022/02/10 02:28:13;;;;;;;;;;;;;;;;;;;;;
2022/02/10 04:04:15;;;;;;;12.10;7.63;;;9.00;97.10;;;;;;6105709;23;20022;-94
2022/02/10 04:26:43;;;;;;;6.82;3.72;;;8.90;97.00;;;;;;6082572;23;20046;-93
2022/02/10 05:31:56;;;;;;;12.70;6.80;;;8.40;96.70;;;;;;6129260;23;20028;-94
2022/02/10 05:34:43;;;;;;;13.70;6.28;;;8.40;96.70;;;;;;6147922;23;20036;-92
2022/02/10 05:37:15;;;;;;;13.27;6.10;;;8.40;96.70;;;;;;6141146;23;20383;-93
2022/02/10 05:40:22;;;;;;;10.43;5.68;;;8.40;96.70;;;;;;6123070;23;20017;-94
2022/02/10 05:45:48;;;;;;;9.75;6.18;;;8.40;96.70;;;;;;6169492;23;20025;-92
2022/02/10 05:48:56;;;;;;;13.80;7.00;;;8.30;96.70;;;;;;6105741;23;20021;-92
2022/02/10 05:57:02;;;;;;;12.35;7.00;;;8.30;96.70;;;;;;6146911;23;20076;-94
2022/02/10 06:02:43;;;;;;;;;;;;;;;;;;;;;
2022/02/10 06:49:53;;;;;;;14.05;6.15;;;8.00;96.90;;;;;;6172383;23;20076;-93
2022/02/10 06:52:50;;;;;;;;;;;;;;;;;;;;;
2022/02/10 07:02:40;;;;;;;12.43;6.38;;;8.00;96.60;;;;;;6060630;23;20026;-93
2022/02/10 07:08:17;;;;;;;12.45;7.15;;;8.00;96.60;;;;;;6087903;23;20097;-95
2022/02/10 07:42:48;;;;;;;13.77;7.82;;;7.90;96.60;;;;;;6059062;23;20384;-93
2022/02/10 07:52:33;;;;;;;17.58;7.88;;;7.90;96.60;;;;;;6172912;23;20025;-92
2022/02/10 07:59:11;;;;;;;13.75;7.88;;;7.80;96.50;;;;;;6178384;23;20032;-93
2022/02/10 09:03:16;;;;;;;16.08;7.10;;;8.30;96.00;;;;;;6114537;23;20055;-90
2022/02/10 09:06:20;;;;;;;11.23;6.93;;;8.30;96.00;;;;;;6151953;23;20031;-92
2022/02/10 09:09:35;;;;;;;14.23;7.38;;;8.40;95.90;;;;;;6197647;23;20482;-87
2022/02/10 09:15:28;;;;;;;16.05;7.85;;;8.50;95.80;;;;;;6166730;23;20028;-88
2022/02/10 09:20:55;;;;;;;13.25;7.20;;;8.60;95.70;;;;;;6191124;23;20021;-89
2022/02/10 10:01:29;;;;;;;12.98;5.25;;;9.10;94.50;;;;;;6186027;23;20080;-86
2022/02/10 10:04:10;;;;;;;11.63;5.32;;;9.20;94.30;;;;;;6162105;23;20182;-87
2022/02/10 10:09:33;;;;;;;17.70;5.05;;;9.30;94.30;;;;;;6163996;23;20383;-86
2022/02/10 10:51:59;;;;;;;10.20;4.03;;;10.00;92.40;;;;;;6162189;23;20070;-79
2022/02/10 10:54:47;;;;;;;9.35;4.15;;;10.10;92.40;;;;;;6183466;23;20017;-81
2022/02/10 12:37:07;;;;;;;7.95;2.80;;;13.10;79.10;;;;;;6124785;23;20336;-82
2022/02/10 14:12:44;;;;;;;16.08;3.63;;;10.90;79.80;;;;;;6159672;23;20017;-82
2022/02/10 14:15:24;;;;;;;10.75;3.67;;;10.90;79.90;;;;;;6163943;23;20087;-82
2022/02/10 14:18:05;;;;;;;7.28;2.15;;;10.80;80.30;;;;;;6137290;23;20020;-91
2022/02/10 14:25:49;;;;;;;13.23;3.42;;;11.10;81.40;;;;;;6181220;23;20025;-81
2022/02/10 14:28:16;;;;;;;12.85;3.60;;;11.10;80.40;;;;;;6176608;23;20395;-80
2022/02/10 14:30:42;;;;;;;13.80;3.53;;;10.90;80.30;;;;;;6180232;23;20017;-82
2022/02/10 14:33:08;;;;;;;13.15;3.70;;;10.90;80.10;;;;;;6155890;23;20071;-83
2022/02/10 14:35:49;;;;;;;21.73;4.88;;;10.80;80.00;;;;;;6181641;23;20021;-81
2022/02/10 15:46:29;;;;;;;11.70;4.80;;;9.60;82.20;;;;;;6190495;23;20706;-80
2022/02/10 16:17:45;;;;;;;15.27;4.53;;;9.10;83.30;;;;;;6214896;23;20386;-83
2022/02/10 16:20:18;;;;;;;15.35;5.50;;;9.10;83.50;;;;;;6165341;23;20091;-82
2022/02/10 16:23:30;;;;;;;11.18;4.50;;;9.00;83.70;;;;;;6179828;23;20016;-85
2022/02/10 16:25:38;;;;;;;13.40;4.55;;;8.90;84.00;;;;;;6200113;23;20064;-84
2022/02/10 16:28:11;;;;;;;18.23;6.57;;;8.90;84.10;;;;;;6198119;23;20072;-79
2022/02/10 16:30:39;;;;;;;11.57;4.15;;;8.80;84.10;;;;;;6225751;23;20021;-79
2022/02/10 16:33:05;;;;;;;11.65;5.10;;;8.80;84.20;;;;;;6189567;23;20047;-80
2022/02/10 16:35:31;;;;;;;11.60;4.43;;;8.70;84.30;;;;;;6217146;23;20025;-79
2022/02/10 16:37:57;;;;;;;13.60;5.63;;;8.60;84.30;;;;;;6192654;23;20020;-82
2022/02/10 16:40:23;;;;;;;10.10;3.90;;;8.60;84.30;;;;;;6201496;23;20056;-85
2022/02/10 16:42:50;;;;;;;13.90;5.00;;;8.50;84.30;;;;;;6150852;23;20017;-82
2022/02/10 16:45:16;;;;;;;16.33;4.95;;;8.50;84.30;;;;;;6196070;23;20024;-79
2022/02/10 16:47:41;;;;;;;10.00;4.65;;;8.40;85.20;;;;;;6190607;23;20021;-80
2022/02/10 16:50:07;;;;;;;13.25;4.50;;;8.40;84.60;;;;;;6193506;23;20027;-90
2022/02/10 16:52:45;;;;;;;15.38;4.70;;;8.40;84.60;;;;;;6193972;23;20016;-85
2022/02/10 16:58:28;;;;;;;14.13;4.15;;;8.40;84.70;;;;;;6198173;23;20091;-83
2022/02/10 17:14:10;;;;;;;17.73;5.47;;;8.40;85.70;;;;;;6199652;23;20055;-83
2022/02/10 17:19:31;;;;;;;18.70;6.65;;;8.30;85.20;;;;;;6170916;23;20031;-83
2022/02/10 17:30:20;;;;;;;18.30;6.78;;;8.00;85.20;;;;;;6177303;23;20339;-80
2022/02/10 17:33:01;;;;;;;13.73;4.97;;;8.00;85.30;;;;;;6174440;23;20424;-81
2022/02/10 17:36:04;;;;;;;13.52;5.20;;;7.90;85.40;;;;;;6191682;23;20027;-81
2022/02/10 17:46:21;;;;;;;14.23;5.25;;;7.90;88.60;;;;;;6166771;23;20048;-88
2022/02/10 17:51:57;;;;;;;13.27;5.55;;;8.10;87.50;;;;;;6168753;23;20056;-81
2022/02/10 17:54:24;;;;;;;19.60;5.95;;;8.00;86.70;;;;;;6165292;23;20021;-80
2022/02/10 17:56:50;;;;;;;15.23;5.20;;;7.90;86.40;;;;;;6138616;23;20023;-81
2022/02/10 17:59:16;;;;;;;15.25;6.18;;;7.90;86.40;;;;;;6188584;23;20024;-81
2022/02/10 18:01:45;;;;;;;16.85;5.72;;;7.80;86.50;;;;;;6189852;23;20020;-81
2022/02/10 18:04:11;;;;;;;14.50;5.20;;;7.80;86.40;;;;;;6164384;23;20023;-81
2022/02/10 18:06:44;;;;;;;15.27;4.50;;;7.70;86.50;;;;;;6164104;23;20317;-75
2022/02/10 18:14:37;;;;;;;12.15;4.95;;;7.80;86.90;;;;;;6165593;23;20103;-82
2022/02/10 18:19:38;;;;;;;18.02;6.95;;;7.70;86.50;;;;;;6165836;23;20032;-86
2022/02/10 18:22:28;;;;;;;18.40;6.03;;;7.60;86.50;;;;;;6190932;23;20028;-86
2022/02/10 18:25:03;;;;;;;17.70;6.30;;;7.50;86.50;;;;;;6168975;23;20028;-82
2022/02/10 18:27:37;;;;;;;17.48;7.03;;;7.50;86.60;;;;;;6191018;23;20066;-84
2022/02/10 19:09:56;;;;;;;15.75;3.67;;;7.00;88.10;;;;;;6188072;23;20032;-81
2022/02/10 19:12:30;;;;;;;12.77;4.00;;;7.00;87.60;;;;;;6187931;23;20025;-77
2022/02/10 19:15:06;;;;;;;13.35;4.75;;;6.90;87.40;;;;;;6165596;23;20350;-89
2022/02/10 19:17:33;;;;;;;16.17;4.25;;;7.20;90.10;;;;;;6166903;23;20063;-83
2022/02/10 19:19:59;;;;;;;18.38;4.45;;;7.20;88.70;;;;;;6183561;23;20023;-78
2022/02/10 19:22:26;;;;;;;13.70;3.50;;;7.20;88.20;;;;;;6163467;23;20017;-79
2022/02/10 19:24:53;;;;;;;16.20;4.68;;;7.10;87.90;;;;;;6162377;23;20028;-76
2022/02/10 19:27:19;;;;;;;19.23;4.25;;;7.10;87.90;;;;;;6187340;23;20020;-80
2022/02/10 19:29:45;;;;;;;14.48;4.32;;;7.10;87.90;;;;;;6187205;23;20102;-80
2022/02/10 19:32:15;;;;;;;14.75;4.80;;;7.00;88.00;;;;;;6162273;23;20032;-79
2022/02/10 19:34:42;;;;;;;14.38;4.10;;;7.00;88.10;;;;;;6187738;23;20095;-80
2022/02/10 19:37:10;;;;;;;14.77;4.47;;;6.90;88.20;;;;;;6187418;23;20016;-80
2022/02/10 19:39:38;;;;;;;19.27;4.05;;;6.90;88.30;;;;;;6163086;23;20500;-81
2022/02/10 19:42:04;;;;;;;14.73;4.85;;;6.90;88.40;;;;;;6163233;23;20343;-80
2022/02/10 19:44:30;;;;;;;14.95;5.07;;;6.90;88.50;;;;;;6164123;23;20027;-82
2022/02/10 19:46:57;;;;;;;15.20;5.28;;;6.80;88.50;;;;;;6187678;23;20012;-80
2022/02/10 19:49:24;;;;;;;12.63;5.20;;;6.80;88.40;;;;;;6162994;23;20021;-82
2022/02/10 19:51:50;;;;;;;14.18;5.07;;;6.80;88.50;;;;;;6186508;23;20047;-80
2022/02/10 19:54:23;;;;;;;15.50;6.13;;;6.70;88.50;;;;;;6160739;23;20455;-78
2022/02/10 19:56:52;;;;;;;15.18;5.28;;;6.70;88.60;;;;;;6163179;23;20013;-77
2022/02/10 19:59:19;;;;;;;15.82;6.53;;;6.70;88.70;;;;;;6211552;23;20336;-78
2022/02/10 20:01:48;;;;;;;19.10;8.13;;;6.60;88.80;;;;;;6186216;23;20304;-78
2022/02/10 20:04:14;;;;;;;18.10;7.47;;;6.60;88.80;;;;;;6186459;23;20021;-78
2022/02/10 20:06:39;;;;;;;20.55;7.43;;;6.60;89.00;;;;;;6211291;23;20447;-79
2022/02/10 20:09:05;;;;;;;16.90;6.78;;;6.50;89.00;;;;;;6211040;23;20021;-79
2022/02/10 20:11:31;;;;;;;15.73;4.63;;;6.50;89.00;;;;;;6182100;23;20028;-78
2022/02/10 20:13:57;;;;;;;15.57;4.75;;;6.50;89.10;;;;;;6182898;23;20092;-85
2022/02/10 20:16:22;;;;;;;10.27;4.57;;;6.50;89.30;;;;;;6160197;23;20553;-80
2022/02/10 20:18:49;;;;;;;15.23;4.85;;;6.50;89.40;;;;;;6182717;23;20020;-80
2022/02/10 20:21:15;;;;;;;11.10;4.10;;;6.40;89.40;;;;;;6206588;23;20021;-80
2022/02/10 20:23:44;;;;;;;14.05;3.97;;;6.50;89.50;;;;;;6182325;23;20021;-87
2022/02/10 20:26:13;;;;;;;11.80;4.70;;;6.40;89.60;;;;;;6181331;23;20458;-80
2022/02/10 20:28:39;;;;;;;15.55;4.15;;;6.80;91.40;;;;;;6158146;23;20024;-81
2022/02/10 20:31:07;;;;;;;11.30;4.07;;;6.80;90.40;;;;;;6158355;23;20017;-78
2022/02/10 20:33:33;;;;;;;11.93;3.40;;;6.80;90.00;;;;;;6208661;23;20087;-82
2022/02/10 20:36:02;;;;;;;13.10;4.13;;;6.80;90.00;;;;;;6159858;23;20124;-77
2022/02/10 20:38:29;;;;;;;18.95;4.95;;;6.70;89.80;;;;;;6157623;23;20024;-80
2022/02/10 20:40:59;;;;;;;15.27;5.03;;;6.60;89.90;;;;;;6183562;23;20021;-80
2022/02/10 20:43:25;;;;;;;14.35;5.30;;;6.60;90.00;;;;;;6183401;23;20021;-80
2022/02/10 20:45:56;;;;;;;14.43;4.80;;;6.50;90.00;;;;;;6158035;23;20029;-83
2022/02/10 20:48:23;;;;;;;15.90;5.57;;;6.50;90.00;;;;;;6159820;23;20024;-83
2022/02/10 20:50:54;;;;;;;14.65;4.57;;;6.50;90.00;;;;;;6158477;23;20024;-83
2022/02/10 20:53:25;;;;;;;12.27;3.70;;;6.40;90.00;;;;;;6183277;23;20096;-82
2022/02/10 20:55:58;;;;;;;13.00;4.60;;;6.40;90.10;;;;;;6158146;23;20036;-82
2022/02/10 20:58:26;;;;;;;12.23;4.22;;;6.40;90.10;;;;;;6158143;23;20255;-82
2022/02/10 21:00:54;;;;;;;11.85;4.07;;;6.40;90.10;;;;;;6159965;23;20355;-81
2022/02/10 21:03:24;;;;;;;10.98;3.92;;;6.30;90.10;;;;;;6158051;23;20097;-83
2022/02/10 21:06:03;;;;;;;11.60;4.07;;;6.30;90.10;;;;;;6183140;23;20021;-82
2022/02/10 21:08:46;;;;;;;16.77;3.92;;;6.30;90.10;;;;;;6184071;23;20083;-84
2022/02/10 21:11:15;;;;;;;14.40;4.47;;;6.20;90.10;;;;;;6187472;23;20017;-83
2022/02/10 21:13:40;;;;;;;10.93;3.72;;;6.20;90.10;;;;;;6188828;23;20025;-81
2022/02/10 21:16:06;;;;;;;18.30;4.40;;;6.20;90.10;;;;;;6164509;23;20448;-83
2022/02/10 21:18:33;;;;;;;13.32;4.20;;;6.20;90.10;;;;;;6164059;23;20024;-81
2022/02/10 21:21:04;;;;;;;16.23;4.10;;;6.20;90.10;;;;;;6188362;23;20013;-80
2022/02/10 21:24:21;;;;;;;18.13;4.85;;;6.20;90.10;;;;;;6188953;23;20051;-79
2022/02/10 21:26:30;;;;;;;12.13;4.15;;;6.20;90.10;;;;;;6152093;23;20024;-81
2022/02/10 21:29:02;;;;;;;13.27;4.53;;;6.10;90.00;;;;;;6163916;23;20020;-82
2022/02/10 21:31:42;;;;;;;13.35;4.93;;;6.10;90.00;;;;;;6164451;23;20020;-82
2022/02/10 21:34:23;;;;;;;8.68;3.17;;;6.10;90.10;;;;;;6168030;23;20027;-83
2022/02/10 21:37:08;;;;;;;13.13;3.85;;;6.10;90.10;;;;;;6166176;23;20262;-86
2022/02/10 21:40:01;;;;;;;11.93;3.90;;;6.10;90.10;;;;;;6190206;23;20284;-79
2022/02/10 22:20:19;;;;;;;8.95;3.92;;;5.80;90.40;;;;;;6070488;23;20025;-77
2022/02/10 22:25:29;;;;;;;12.27;4.05;;;5.70;90.40;;;;;;6187606;23;20020;-79
2022/02/10 22:27:58;;;;;;;17.58;5.32;;;5.70;90.50;;;;;;6213199;23;20111;-80
2022/02/10 22:30:41;;;;;;;12.43;4.88;;;5.70;90.50;;;;;;6211896;23;20028;-84
2022/02/10 22:33:25;;;;;;;18.75;5.32;;;5.70;90.50;;;;;;6187992;23;20047;-83
2022/02/10 22:35:51;;;;;;;18.48;4.85;;;5.70;90.50;;;;;;6162439;23;20023;-84
2022/02/10 22:38:21;;;;;;;12.80;4.90;;;5.60;90.50;;;;;;6164660;23;20091;-83
2022/02/10 22:43:20;;;;;;;15.00;5.75;;;5.60;90.90;;;;;;6216728;23;20451;-80
2022/02/10 22:45:48;;;;;;;16.00;5.70;;;5.60;90.60;;;;;;6188328;23;20023;-83
2022/02/10 22:48:14;;;;;;;11.60;5.60;;;5.60;90.60;;;;;;6188519;23;20066;-82
2022/02/10 22:50:40;;;;;;;14.63;6.45;;;5.50;90.60;;;;;;6214277;23;20024;-82
2022/02/10 22:53:06;;;;;;;14.63;5.97;;;5.50;90.60;;;;;;6189560;23;20455;-82
2022/02/10 22:55:32;;;;;;;13.38;6.32;;;5.50;90.70;;;;;;6189414;23;20099;-82
2022/02/10 22:57:57;;;;;;;12.15;4.95;;;5.50;90.70;;;;;;6164619;23;20048;-82
2022/02/10 23:00:29;;;;;;;11.45;5.85;;;5.50;90.70;;;;;;6139815;23;20427;-84
2022/02/10 23:02:54;;;;;;;19.50;6.25;;;5.40;90.70;;;;;;6189136;23;20057;-82
2022/02/10 23:05:22;;;;;;;17.15;6.30;;;5.40;90.80;;;;;;6194503;23;20024;-83
2022/02/10 23:07:52;;;;;;;14.23;5.32;;;5.40;90.80;;;;;;6145619;23;20016;-82
2022/02/10 23:12:43;;;;;;;13.70;5.65;;;5.30;90.70;;;;;;6215265;23;20323;-82
2022/02/10 23:15:09;;;;;;;12.40;5.53;;;5.30;90.70;;;;;;6216136;23;20044;-82
2022/02/10 23:17:36;;;;;;;14.20;5.57;;;5.30;90.80;;;;;;6189071;23;20099;-82
2022/02/10 23:20:02;;;;;;;11.95;5.05;;;5.30;90.80;;;;;;6192892;23;20028;-82
2022/02/10 23:22:28;;;;;;;14.90;5.88;;;5.30;90.80;;;;;;6222429;23;20036;-87
2022/02/10 23:24:54;;;;;;;11.77;5.55;;;5.30;90.90;;;;;;6196698;23;20062;-83
2022/02/10 23:27:19;;;;;;;16.25;5.68;;;5.30;90.90;;;;;;6192495;23;20016;-82
2022/02/10 23:29:45;;;;;;;13.73;5.03;;;5.20;90.90;;;;;;6213945;23;20017;-82
2022/02/10 23:32:11;;;;;;;15.35;5.70;;;5.30;90.90;;;;;;6214677;23;20082;-83
2022/02/10 23:34:38;;;;;;;11.18;5.20;;;5.20;90.90;;;;;;6163693;23;20017;-82
2022/02/10 23:37:06;;;;;;;11.68;4.85;;;5.20;90.90;;;;;;6188917;23;20082;-83
2022/02/10 23:39:37;;;;;;;14.05;5.07;;;5.30;91.30;;;;;;6215156;23;20372;-87
2022/02/10 23:44:36;;;;;;;13.43;5.57;;;5.20;91.00;;;;;;6189219;23;20099;-84
2022/02/10 23:47:03;;;;;;;14.80;5.75;;;5.20;91.00;;;;;;6166117;23;20451;-82
2022/02/10 23:49:31;;;;;;;20.50;6.28;;;5.10;91.00;;;;;;6215533;23;20331;-83
2022/02/10 23:52:00;;;;;;;15.57;5.60;;;5.20;91.10;;;;;;6194857;23;20459;-81
2022/02/10 23:54:27;;;;;;;17.08;5.72;;;5.10;91.10;;;;;;6223005;23;20387;-82
